aviador You're here:

LYNI Decoded Metar

NIS in SERBIA
Report Time2018-07-20 06:00:00
UTC Time2018-07-20 06:19:03
Flight Rules vfr VFR
WindCalm
Visibility9999 m
Phenomena:N/A
Clouds:Few 010 Hf
Expected CloudBase > 800 ft AGL from Temp-Dew spread
CeilingNone
Temp20°C (ISA +6)
Dew Point18°C (88% RH)
QNH1013 hPa
Density Alt1,677 ft
Elevation663 ft
Report Wrong Elevation
Raw Report
LYNI 200600Z 00000KT 9999 FEW010 20/18 Q1013 NOSIG=

Extra information for LYNI:More info

Metar Taf Metar & Taf Last 4 Metars F.Rules Stats Wind Profile Meteogram Temp Stats Airport Information Weather charts Add Link Nearby VenuesMetar ALERT Operation Metar Decoded Social comments